Time;durP1;ratioP1;P1;durP2;ratioP2;P2;SDS_P1;SDS_P2;PMS_P1;PMS_P2;Temp;Humidity;BMP_temperature;BMP_pressure;BME280_temperature;BME280_humidity;BME280_pressure;Samples;Min_cycle;Max_cycle;Signal;HPM_P1;HPM_P2
2022/04/21 00:00:47;;;;;;;8.70;8.50;;;22.80;40.80;;;;;;5074433;28;20536;-44
2022/04/21 00:03:15;;;;;;;8.73;8.53;;;22.80;40.80;;;;;;5068131;28;20975;-45
2022/04/21 00:05:42;;;;;;;9.50;9.30;;;22.80;40.80;;;;;;5061338;28;20440;-43
2022/04/21 00:08:09;;;;;;;8.77;8.57;;;22.80;40.90;;;;;;5053971;28;20507;-45
2022/04/21 00:10:38;;;;;;;8.83;8.63;;;22.80;40.90;;;;;;5054203;28;20452;-45
2022/04/21 00:13:06;;;;;;;9.07;8.70;;;22.70;40.90;;;;;;5061866;28;20443;-44
2022/04/21 00:15:33;;;;;;;8.53;8.33;;;22.70;41.00;;;;;;5074097;28;20455;-44
2022/04/21 00:18:01;;;;;;;9.00;8.80;;;22.90;41.00;;;;;;5070813;28;20471;-46
2022/04/21 00:20:27;;;;;;;9.53;9.33;;;23.10;40.80;;;;;;5054057;28;20852;-46
2022/04/21 00:25:40;;;;;;;9.00;8.77;;;23.20;40.30;;;;;;5060937;28;20578;-44
2022/04/21 00:28:07;;;;;;;9.80;9.50;;;23.30;40.30;;;;;;5053582;28;20480;-44
2022/04/21 00:30:34;;;;;;;9.20;9.00;;;23.30;40.30;;;;;;5053844;28;20448;-44
2022/04/21 00:33:01;;;;;;;9.60;9.30;;;23.30;40.30;;;;;;5060195;28;20451;-44
2022/04/21 00:35:27;;;;;;;8.53;8.33;;;23.30;40.30;;;;;;5073810;28;20444;-44
2022/04/21 00:37:55;;;;;;;8.90;8.70;;;23.30;40.20;;;;;;5073460;28;20818;-44
2022/04/21 00:40:26;;;;;;;9.03;8.83;;;23.30;40.20;;;;;;5073661;28;20451;-45
2022/04/21 00:42:55;;;;;;;9.60;9.30;;;23.30;40.30;;;;;;5068118;28;20444;-43
2022/04/21 00:45:22;;;;;;;8.90;8.60;;;23.30;40.30;;;;;;5053571;28;20445;-44
2022/04/21 00:47:51;;;;;;;8.40;8.20;;;23.30;40.30;;;;;;5053261;28;20468;-45
2022/04/21 00:50:19;;;;;;;9.17;8.97;;;23.20;40.20;;;;;;5053480;28;20443;-44
2022/04/21 00:52:47;;;;;;;9.20;9.00;;;23.20;40.30;;;;;;5057387;28;20453;-44
2022/04/21 00:55:14;;;;;;;8.80;8.60;;;23.20;40.30;;;;;;5073420;28;20818;-44
2022/04/21 00:57:42;;;;;;;8.43;8.23;;;23.20;40.30;;;;;;5060645;28;20471;-44
2022/04/21 01:00:12;;;;;;;9.13;8.93;;;23.20;40.40;;;;;;5053311;28;20443;-44
2022/04/21 01:02:56;;;;;;;9.80;9.50;;;23.20;40.40;;;;;;5055839;28;20938;-43
2022/04/21 01:05:29;;;;;;;8.90;8.70;;;23.20;40.40;;;;;;5073162;28;20446;-44
2022/04/21 01:07:56;;;;;;;8.93;8.73;;;23.10;40.40;;;;;;5072831;28;20464;-44
2022/04/21 01:10:25;;;;;;;9.97;9.77;;;23.10;40.40;;;;;;5073024;28;20444;-44
2022/04/21 01:12:52;;;;;;;8.93;8.73;;;23.10;40.50;;;;;;5068378;28;20445;-44
2022/04/21 01:15:20;;;;;;;8.60;8.40;;;23.10;40.50;;;;;;5052871;28;20452;-43
2022/04/21 01:17:46;;;;;;;9.10;8.90;;;23.10;40.60;;;;;;5052585;28;20473;-44
2022/04/21 01:20:19;;;;;;;9.30;9.10;;;23.10;40.60;;;;;;5052907;28;20436;-44
2022/04/21 01:22:46;;;;;;;9.10;8.90;;;23.10;40.60;;;;;;5069832;28;20443;-44
2022/04/21 01:25:13;;;;;;;9.60;9.33;;;23.00;40.60;;;;;;5071188;28;20450;-44
2022/04/21 01:27:42;;;;;;;9.37;9.17;;;23.00;40.60;;;;;;5072320;28;20467;-44
2022/04/21 01:30:10;;;;;;;9.30;9.10;;;23.00;40.70;;;;;;5071754;28;20857;-46
2022/04/21 01:32:37;;;;;;;8.90;8.70;;;23.00;40.80;;;;;;5056569;28;20448;-45
2022/04/21 01:35:06;;;;;;;9.20;9.00;;;23.00;40.80;;;;;;5052555;28;20936;-47
2022/04/21 01:43:04;;;;;;;8.67;8.47;;;22.90;40.80;;;;;;5071373;28;20850;-44
2022/04/21 01:45:31;;;;;;;9.40;9.20;;;22.90;41.40;;;;;;5072331;28;20802;-44
2022/04/21 01:47:58;;;;;;;8.90;8.70;;;22.90;40.90;;;;;;5071896;28;20486;-44
2022/04/21 01:50:25;;;;;;;9.20;9.00;;;22.80;40.80;;;;;;5072144;28;20494;-44
2022/04/21 01:52:53;;;;;;;8.97;8.77;;;22.80;40.90;;;;;;5054727;28;20452;-44
2022/04/21 01:55:20;;;;;;;9.07;8.87;;;22.80;40.90;;;;;;5052101;28;20443;-44
2022/04/21 01:57:47;;;;;;;9.50;9.30;;;22.80;41.00;;;;;;5051919;28;20465;-44
2022/04/21 02:00:14;;;;;;;9.00;8.80;;;22.80;41.00;;;;;;5052128;28;20448;-44
2022/04/21 02:02:41;;;;;;;9.10;8.90;;;22.80;41.10;;;;;;5062108;28;20957;-44
2022/04/21 02:05:08;;;;;;;9.83;9.53;;;22.70;41.00;;;;;;5058680;28;20452;-44
2022/04/21 02:07:36;;;;;;;9.43;9.23;;;22.70;41.10;;;;;;5051614;28;20465;-44
2022/04/21 02:10:05;;;;;;;9.67;9.47;;;22.90;41.10;;;;;;5051871;28;20490;-44
2022/04/21 02:12:32;;;;;;;8.90;8.70;;;23.10;40.90;;;;;;5065562;28;20533;-43
2022/04/21 02:15:01;;;;;;;9.20;9.00;;;23.20;40.70;;;;;;5071900;28;20454;-45
2022/04/21 02:17:28;;;;;;;9.53;9.23;;;23.20;40.50;;;;;;5071520;28;20467;-44
2022/04/21 02:19:55;;;;;;;9.00;8.80;;;23.20;40.50;;;;;;5071778;28;20455;-44
2022/04/21 02:22:22;;;;;;;9.57;9.20;;;23.20;40.40;;;;;;5060744;28;20459;-46
2022/04/21 02:24:49;;;;;;;9.67;9.47;;;23.30;40.50;;;;;;5058402;28;20450;-44
2022/04/21 02:27:17;;;;;;;9.10;8.80;;;23.30;40.50;;;;;;5071453;28;20466;-43
2022/04/21 02:29:43;;;;;;;8.80;8.60;;;23.30;40.50;;;;;;5071725;28;20475;-44
2022/04/21 02:32:10;;;;;;;9.70;9.40;;;23.30;40.50;;;;;;5060985;28;20448;-44
2022/04/21 02:34:37;;;;;;;9.30;9.10;;;23.30;40.40;;;;;;5051548;28;20447;-44
2022/04/21 02:37:04;;;;;;;8.80;8.60;;;23.30;40.50;;;;;;5051293;28;20782;-44
2022/04/21 02:39:31;;;;;;;9.20;9.00;;;23.30;40.40;;;;;;5051517;28;20436;-44
2022/04/21 02:41:57;;;;;;;9.97;9.73;;;23.30;40.50;;;;;;5059739;28;20459;-44
2022/04/21 02:44:26;;;;;;;9.80;9.50;;;23.30;40.50;;;;;;5071593;28;20444;-49
2022/04/21 02:46:53;;;;;;;8.83;8.53;;;23.20;40.40;;;;;;5071285;28;20541;-46
2022/04/21 02:49:20;;;;;;;9.57;9.37;;;23.20;40.40;;;;;;5055643;28;20476;-44
2022/04/21 02:51:47;;;;;;;9.20;9.00;;;23.20;40.40;;;;;;5051367;28;20439;-45
2022/04/21 02:59:44;;;;;;;10.30;10.00;;;23.20;40.50;;;;;;5069378;28;20430;-44
2022/04/21 03:02:11;;;;;;;9.97;9.67;;;23.10;40.50;;;;;;5059287;28;20452;-46
2022/04/21 03:04:38;;;;;;;9.77;9.57;;;23.10;40.60;;;;;;5071304;28;20448;-43
2022/04/21 03:07:05;;;;;;;10.63;10.33;;;23.10;40.70;;;;;;5071070;28;20435;-43
2022/04/21 03:09:32;;;;;;;10.00;9.70;;;23.10;40.70;;;;;;5054407;28;20476;-43
2022/04/21 03:12:03;;;;;;;9.90;9.70;;;23.00;40.70;;;;;;5051240;28;20452;-44
2022/04/21 03:14:29;;;;;;;9.60;9.40;;;23.00;40.70;;;;;;5051270;28;21002;-46
2022/04/21 03:16:58;;;;;;;10.63;10.40;;;23.00;40.80;;;;;;5050906;28;20917;-44
2022/04/21 03:19:26;;;;;;;9.80;9.60;;;23.00;40.80;;;;;;5066340;28;20443;-45
2022/04/21 03:24:46;;;;;;;10.20;9.90;;;23.00;40.90;;;;;;5046253;28;20923;-45
2022/04/21 03:27:13;;;;;;;9.77;9.47;;;22.90;40.90;;;;;;5070890;28;20993;-44
2022/04/21 03:29:40;;;;;;;9.80;9.60;;;22.90;40.90;;;;;;5053479;28;20480;-45
2022/04/21 03:32:10;;;;;;;9.50;9.20;;;22.90;41.00;;;;;;5065998;28;20455;-43
2022/04/21 03:34:40;;;;;;;9.03;8.83;;;22.90;41.00;;;;;;5071187;28;20451;-44
2022/04/21 03:37:07;;;;;;;10.13;9.83;;;22.90;41.00;;;;;;5070778;28;20562;-45
2022/04/21 03:39:34;;;;;;;9.43;9.13;;;22.80;41.00;;;;;;5054587;28;20527;-45
2022/04/21 03:42:01;;;;;;;9.40;9.20;;;22.80;41.00;;;;;;5051026;28;20827;-43
2022/04/21 03:44:28;;;;;;;9.80;9.60;;;22.80;41.00;;;;;;5050911;28;20547;-45
2022/04/21 03:46:57;;;;;;;10.03;9.73;;;22.80;41.10;;;;;;5050810;28;20792;-43
2022/04/21 03:49:26;;;;;;;10.10;9.87;;;22.80;41.10;;;;;;5065184;28;20555;-45
2022/04/21 03:51:52;;;;;;;10.43;10.13;;;22.80;41.10;;;;;;5071041;28;20447;-43
2022/04/21 03:54:19;;;;;;;10.23;9.93;;;23.10;41.10;;;;;;5073188;28;20444;-44
2022/04/21 03:56:46;;;;;;;10.10;9.80;;;23.20;40.80;;;;;;5074263;28;20478;-45
2022/04/21 03:59:13;;;;;;;10.67;10.37;;;23.30;40.80;;;;;;5061223;28;20440;-45
2022/04/21 04:01:40;;;;;;;9.90;9.70;;;23.50;40.60;;;;;;5054366;28;20957;-43
2022/04/21 04:04:07;;;;;;;10.50;10.10;;;23.60;40.30;;;;;;5054434;28;20459;-44
2022/04/21 04:12:04;;;;;;;11.20;10.87;;;23.80;40.10;;;;;;5074223;28;20995;-43
2022/04/21 04:14:31;;;;;;;11.60;11.30;;;23.80;40.20;;;;;;5074047;28;20444;-43
2022/04/21 04:16:58;;;;;;;10.20;9.90;;;23.90;40.30;;;;;;5073859;28;20963;-44
2022/04/21 04:19:25;;;;;;;10.67;10.37;;;23.80;40.20;;;;;;5059617;28;20437;-44
2022/04/21 04:21:53;;;;;;;11.50;11.10;;;23.90;40.30;;;;;;5062535;28;20448;-44
2022/04/21 04:24:20;;;;;;;11.10;10.80;;;23.90;40.20;;;;;;5074034;28;20447;-43
2022/04/21 04:26:47;;;;;;;10.60;10.30;;;23.90;40.20;;;;;;5073648;28;20815;-46
2022/04/21 04:29:13;;;;;;;11.13;10.83;;;23.90;40.20;;;;;;5061222;28;20444;-44
2022/04/21 04:31:40;;;;;;;11.20;10.80;;;23.80;40.20;;;;;;5053779;28;20444;-44
2022/04/21 04:34:08;;;;;;;10.67;10.37;;;23.90;40.30;;;;;;5053841;28;20448;-45
2022/04/21 04:36:35;;;;;;;11.60;11.20;;;23.80;40.30;;;;;;5062767;28;20452;-43
2022/04/21 04:39:03;;;;;;;10.73;10.47;;;23.80;40.20;;;;;;5073576;28;20476;-43
2022/04/21 04:44:14;;;;;;;13.00;12.23;;;23.80;40.80;;;;;;5073666;28;20415;-43
2022/04/21 04:46:40;;;;;;;15.60;14.03;;;23.90;41.90;;;;;;5063096;28;20440;-45
2022/04/21 04:49:08;;;;;;;15.80;14.57;;;23.80;44.80;;;;;;5053238;28;20471;-43
2022/04/21 04:51:37;;;;;;;13.20;12.30;;;23.80;47.10;;;;;;5053421;28;20217;-43
2022/04/21 04:54:06;;;;;;;12.87;12.17;;;23.60;45.20;;;;;;5053424;28;20877;-48
2022/04/21 04:56:32;;;;;;;12.63;12.13;;;23.50;44.20;;;;;;5056068;28;20456;-42
2022/04/21 04:58:59;;;;;;;13.53;12.53;;;23.50;43.40;;;;;;5053130;28;20468;-43
2022/04/21 05:01:30;;;;;;;13.20;12.30;;;23.50;44.10;;;;;;5053241;28;20484;-43
2022/04/21 05:04:04;;;;;;;14.27;13.20;;;23.50;44.40;;;;;;5053188;28;20456;-44
2022/04/21 05:06:35;;;;;;;13.70;13.00;;;23.60;44.30;;;;;;5053157;28;20911;-43
2022/04/21 05:09:02;;;;;;;12.80;12.20;;;23.70;44.10;;;;;;5052891;28;20501;-49
2022/04/21 05:11:31;;;;;;;13.70;13.00;;;23.70;43.80;;;;;;5053131;28;20507;-44
2022/04/21 05:13:58;;;;;;;13.83;13.23;;;23.70;43.50;;;;;;5052975;28;20448;-43
2022/04/21 05:16:24;;;;;;;12.40;11.70;;;23.80;43.30;;;;;;5052760;28;20440;-44
2022/04/21 05:18:52;;;;;;;12.50;11.90;;;23.80;43.10;;;;;;5052814;28;20464;-44
2022/04/21 05:21:19;;;;;;;12.53;11.93;;;23.80;42.90;;;;;;5052847;28;20944;-43
2022/04/21 05:23:48;;;;;;;12.70;12.00;;;23.80;42.70;;;;;;5052742;28;20444;-43
2022/04/21 05:26:16;;;;;;;12.40;11.80;;;23.80;42.60;;;;;;5052746;28;20936;-47
2022/04/21 05:28:45;;;;;;;14.47;13.57;;;23.80;42.50;;;;;;5052547;28;20526;-46
2022/04/21 05:31:11;;;;;;;12.20;11.60;;;23.80;42.40;;;;;;5052529;28;20487;-43
2022/04/21 05:33:39;;;;;;;12.87;12.10;;;23.70;42.30;;;;;;5052646;28;20795;-43
2022/04/21 05:36:07;;;;;;;12.33;11.80;;;23.70;42.30;;;;;;5052545;28;20444;-43
2022/04/21 05:38:35;;;;;;;12.90;11.93;;;23.70;42.20;;;;;;5052222;28;20590;-45
2022/04/21 05:41:03;;;;;;;13.03;12.30;;;23.70;42.20;;;;;;5052414;28;20440;-43
2022/04/21 05:43:39;;;;;;;12.70;11.93;;;23.70;42.00;;;;;;5052588;28;20448;-43
2022/04/21 05:46:08;;;;;;;12.03;11.33;;;23.70;42.00;;;;;;5052346;28;20440;-43
2022/04/21 05:48:35;;;;;;;12.30;11.80;;;23.60;42.50;;;;;;5052123;28;20494;-43
2022/04/21 05:51:03;;;;;;;11.47;11.07;;;23.60;41.90;;;;;;5052228;28;20483;-44
2022/04/21 05:53:34;;;;;;;11.30;10.90;;;23.60;41.90;;;;;;5052277;28;20444;-43
2022/04/21 05:56:02;;;;;;;12.50;12.00;;;23.60;41.90;;;;;;5052061;28;20453;-50
2022/04/21 05:58:28;;;;;;;12.40;11.80;;;23.60;41.90;;;;;;5051849;28;20467;-43
2022/04/21 06:00:55;;;;;;;12.50;12.00;;;23.50;41.80;;;;;;5052075;28;20444;-50
2022/04/21 06:03:24;;;;;;;11.70;11.10;;;23.50;41.80;;;;;;5051950;28;20467;-43
2022/04/21 06:05:50;;;;;;;11.30;10.80;;;23.50;41.80;;;;;;5052097;28;20445;-43
2022/04/21 06:08:17;;;;;;;12.83;12.07;;;23.50;41.80;;;;;;5051658;28;20468;-43
2022/04/21 06:10:44;;;;;;;12.03;11.63;;;23.50;41.90;;;;;;5051712;28;20483;-44
2022/04/21 06:13:15;;;;;;;12.90;12.20;;;23.40;41.80;;;;;;5051863;28;20444;-43
2022/04/21 06:15:42;;;;;;;12.43;11.93;;;23.40;41.80;;;;;;5051575;28;21069;-48
2022/04/21 06:18:09;;;;;;;12.90;12.40;;;23.40;41.80;;;;;;5051484;28;20473;-45
2022/04/21 06:20:37;;;;;;;12.10;11.70;;;23.40;41.80;;;;;;5051865;28;20444;-45
2022/04/21 06:23:04;;;;;;;12.83;12.37;;;23.40;41.80;;;;;;5051881;28;20454;-45
2022/04/21 06:25:31;;;;;;;14.00;13.20;;;23.30;41.70;;;;;;5051722;28;20444;-43
2022/04/21 06:27:57;;;;;;;11.83;11.43;;;23.30;41.80;;;;;;5051389;28;20464;-43
2022/04/21 06:30:24;;;;;;;12.13;11.63;;;23.30;41.80;;;;;;5051529;28;20480;-44
2022/04/21 06:32:52;;;;;;;12.10;11.70;;;23.30;41.80;;;;;;5051679;28;20455;-43
2022/04/21 06:35:19;;;;;;;12.23;11.73;;;23.30;41.80;;;;;;5051550;28;20452;-44
2022/04/21 06:37:47;;;;;;;12.83;12.30;;;23.20;41.70;;;;;;5051329;28;20530;-43
2022/04/21 06:40:15;;;;;;;11.63;11.23;;;23.20;41.70;;;;;;5051587;28;20701;-43
2022/04/21 06:42:42;;;;;;;12.20;11.63;;;23.20;41.70;;;;;;5051465;28;20879;-43
2022/04/21 06:48:04;;;;;;;10.80;10.50;;;23.20;41.80;;;;;;5051242;28;20451;-44
2022/04/21 06:50:32;;;;;;;10.70;10.37;;;23.20;41.80;;;;;;5051469;28;20838;-49
2022/04/21 06:53:00;;;;;;;11.53;11.10;;;23.10;41.80;;;;;;5051418;28;20447;-43
2022/04/21 06:55:27;;;;;;;11.17;10.77;;;23.10;41.80;;;;;;5051205;28;20804;-46
2022/04/21 06:57:53;;;;;;;11.60;11.23;;;23.10;41.80;;;;;;5051137;28;20989;-43
2022/04/21 07:00:22;;;;;;;12.47;12.07;;;23.10;41.80;;;;;;5051391;28;20440;-43
2022/04/21 07:02:52;;;;;;;12.30;11.60;;;23.10;41.80;;;;;;5051396;28;20526;-47
2022/04/21 07:05:19;;;;;;;11.97;11.50;;;23.00;41.80;;;;;;5051269;28;20437;-45
2022/04/21 07:07:47;;;;;;;12.13;11.73;;;23.00;41.80;;;;;;5050933;28;20476;-44
2022/04/21 07:10:16;;;;;;;11.70;11.30;;;23.00;41.80;;;;;;5051128;28;20476;-44
2022/04/21 07:12:43;;;;;;;12.50;12.00;;;23.00;41.90;;;;;;5051136;28;20444;-43
2022/04/21 07:15:11;;;;;;;11.63;11.30;;;23.00;41.90;;;;;;5051216;28;20448;-43
2022/04/21 07:17:39;;;;;;;11.40;11.10;;;23.00;41.80;;;;;;5050932;28;20465;-43
2022/04/21 07:20:08;;;;;;;11.10;10.80;;;22.90;41.80;;;;;;5051036;28;20467;-44
2022/04/21 07:22:35;;;;;;;12.03;11.63;;;22.90;41.80;;;;;;5050999;28;20817;-43
2022/04/21 07:25:04;;;;;;;10.83;10.43;;;22.90;41.70;;;;;;5051065;28;20445;-45
2022/04/21 07:27:32;;;;;;;11.40;11.10;;;22.90;41.70;;;;;;5050751;28;21010;-43
2022/04/21 07:30:01;;;;;;;12.33;11.83;;;22.90;41.70;;;;;;5054453;28;20452;-43
2022/04/21 07:32:28;;;;;;;11.63;11.23;;;22.90;41.70;;;;;;5055001;28;20506;-47
2022/04/21 07:34:55;;;;;;;12.53;12.13;;;22.90;41.80;;;;;;5054838;28;20452;-43
2022/04/21 07:37:22;;;;;;;11.90;11.50;;;22.90;41.70;;;;;;5054554;28;20502;-48
2022/04/21 07:39:48;;;;;;;11.30;10.97;;;22.80;41.70;;;;;;5054828;28;20799;-43
2022/04/21 07:42:15;;;;;;;10.77;10.47;;;22.80;41.70;;;;;;5054718;28;20448;-43
2022/04/21 07:44:43;;;;;;;11.77;11.47;;;22.80;41.70;;;;;;5054758;28;20823;-47
2022/04/21 07:47:10;;;;;;;11.00;10.60;;;22.80;41.80;;;;;;5054448;28;20460;-47
2022/04/21 07:49:45;;;;;;;10.70;10.40;;;22.70;41.80;;;;;;5054641;28;20447;-47
2022/04/21 07:55:06;;;;;;;11.10;10.70;;;22.70;41.80;;;;;;5029791;28;20421;-43
2022/04/21 07:57:33;;;;;;;11.83;11.43;;;22.70;41.90;;;;;;5054132;28;20468;-43
2022/04/21 08:00:01;;;;;;;10.93;10.50;;;22.70;41.90;;;;;;5054361;28;20464;-43
2022/04/21 08:02:28;;;;;;;11.10;10.70;;;22.70;41.90;;;;;;5054384;28;20444;-44
2022/04/21 08:04:54;;;;;;;11.77;11.47;;;22.70;41.90;;;;;;5054329;28;20444;-50
2022/04/21 08:07:21;;;;;;;11.43;11.13;;;22.70;41.90;;;;;;5053953;28;20464;-44
2022/04/21 08:09:48;;;;;;;12.73;12.30;;;22.70;41.90;;;;;;5054212;28;20436;-43
2022/04/21 08:12:14;;;;;;;12.00;11.70;;;22.70;41.90;;;;;;5054071;28;20479;-43
2022/04/21 08:14:41;;;;;;;12.20;11.70;;;22.70;42.50;;;;;;5054188;28;20808;-45
2022/04/21 08:17:09;;;;;;;11.33;11.03;;;22.60;41.90;;;;;;5053817;28;20468;-43
2022/04/21 08:19:36;;;;;;;10.90;10.60;;;22.60;41.90;;;;;;5053964;28;20441;-43
2022/04/21 08:22:03;;;;;;;11.00;10.70;;;22.60;41.90;;;;;;5053919;28;20436;-43
2022/04/21 08:32:45;;;;;;;10.67;10.30;;;22.60;42.00;;;;;;5053884;28;20838;-43
2022/04/21 08:35:13;;;;;;;11.37;11.07;;;22.60;42.00;;;;;;5053864;28;20807;-43
2022/04/21 08:37:41;;;;;;;11.83;11.53;;;22.50;42.00;;;;;;5053402;28;20464;-43
2022/04/21 08:40:10;;;;;;;11.20;10.90;;;22.50;42.00;;;;;;5053131;28;21016;-44
2022/04/21 08:42:39;;;;;;;11.30;10.97;;;22.50;42.00;;;;;;5053606;28;20533;-43
2022/04/21 08:45:07;;;;;;;11.10;10.80;;;22.50;42.00;;;;;;5053507;28;20801;-45
2022/04/21 08:47:34;;;;;;;11.50;11.20;;;22.50;42.00;;;;;;5053235;28;20465;-43
2022/04/21 08:50:06;;;;;;;11.83;11.23;;;22.50;42.00;;;;;;5053506;28;20448;-43
2022/04/21 08:52:35;;;;;;;10.73;10.43;;;22.50;42.10;;;;;;5053281;28;20843;-44
2022/04/21 08:55:03;;;;;;;11.70;11.40;;;22.40;42.00;;;;;;5053402;28;20444;-43
2022/04/21 08:57:30;;;;;;;11.80;11.40;;;22.50;42.10;;;;;;5052897;28;20839;-43
2022/04/21 08:59:57;;;;;;;11.20;10.90;;;22.50;42.10;;;;;;5053204;28;20452;-46
2022/04/21 09:02:34;;;;;;;10.80;10.50;;;22.40;42.00;;;;;;5053711;28;20498;-49
2022/04/21 09:05:01;;;;;;;10.77;10.47;;;22.50;42.10;;;;;;5053249;28;20447;-45
2022/04/21 09:07:29;;;;;;;11.53;11.23;;;22.40;42.00;;;;;;5052758;28;20464;-46
2022/04/21 09:10:07;;;;;;;11.10;10.80;;;22.40;42.10;;;;;;5053015;28;20444;-46
2022/04/21 09:12:34;;;;;;;11.83;11.47;;;22.50;42.10;;;;;;5053037;28;20475;-45
2022/04/21 09:15:07;;;;;;;11.27;10.97;;;22.40;42.10;;;;;;5052931;28;20444;-45
2022/04/21 09:17:42;;;;;;;11.10;10.80;;;22.40;42.10;;;;;;5052666;28;20461;-46
2022/04/21 09:20:10;;;;;;;10.83;10.43;;;22.40;42.10;;;;;;5052947;28;20813;-45
2022/04/21 09:22:41;;;;;;;11.37;10.97;;;22.40;42.10;;;;;;5052815;28;20452;-47
2022/04/21 09:25:09;;;;;;;10.73;10.43;;;22.40;42.10;;;;;;5052772;28;20441;-45
2022/04/21 09:27:40;;;;;;;11.77;11.37;;;22.40;42.10;;;;;;5052562;28;20464;-45
2022/04/21 09:30:10;;;;;;;10.90;10.50;;;22.40;42.20;;;;;;5052685;28;20961;-44
2022/04/21 09:32:38;;;;;;;11.20;10.90;;;22.40;42.20;;;;;;5052556;28;20999;-45
2022/04/21 09:35:08;;;;;;;11.07;10.77;;;22.40;42.20;;;;;;5052525;28;20444;-45
2022/04/21 09:37:48;;;;;;;10.53;10.23;;;22.40;42.20;;;;;;5052115;28;20491;-46
2022/04/21 09:40:20;;;;;;;11.00;10.70;;;22.40;42.20;;;;;;5052582;28;20943;-45
2022/04/21 09:42:55;;;;;;;11.73;11.43;;;22.30;42.10;;;;;;5052471;28;20445;-45
2022/04/21 09:48:20;;;;;;;11.93;11.60;;;22.30;42.10;;;;;;5052151;28;20522;-45
2022/04/21 09:50:49;;;;;;;11.83;11.33;;;22.30;42.20;;;;;;5051525;28;20948;-45
2022/04/21 09:53:20;;;;;;;11.60;11.30;;;22.30;42.20;;;;;;5052254;28;20453;-45
2022/04/21 09:55:47;;;;;;;12.00;11.60;;;22.30;42.20;;;;;;5052184;28;20452;-45
2022/04/21 09:58:14;;;;;;;11.60;11.20;;;22.30;42.20;;;;;;5051899;28;20464;-45
2022/04/21 10:00:41;;;;;;;11.60;11.30;;;22.30;42.20;;;;;;5052120;28;20444;-48
2022/04/21 10:03:09;;;;;;;12.33;12.03;;;22.30;42.30;;;;;;5052130;28;20455;-45
2022/04/21 10:05:37;;;;;;;12.13;11.73;;;22.30;42.30;;;;;;5051958;28;20535;-47
2022/04/21 10:08:06;;;;;;;10.80;10.50;;;22.30;42.30;;;;;;5051791;28;20479;-45
2022/04/21 10:10:35;;;;;;;12.13;11.83;;;22.30;42.30;;;;;;5052022;28;20451;-45
2022/04/21 10:13:04;;;;;;;11.30;11.00;;;22.30;42.30;;;;;;5051691;28;20490;-48
2022/04/21 10:15:31;;;;;;;11.47;11.17;;;22.30;42.30;;;;;;5051742;28;20456;-44
2022/04/21 10:17:58;;;;;;;11.43;11.13;;;22.30;42.30;;;;;;5051669;28;20554;-45
2022/04/21 10:20:27;;;;;;;10.87;10.63;;;22.30;42.30;;;;;;5051792;28;20846;-45
2022/04/21 10:22:55;;;;;;;12.37;11.67;;;22.30;42.30;;;;;;5051816;28;20870;-45
2022/04/21 10:25:36;;;;;;;11.20;10.80;;;22.30;42.30;;;;;;5051581;28;20481;-48
2022/04/21 10:28:35;;;;;;;11.50;11.10;;;22.30;42.30;;;;;;5051479;28;20468;-47
2022/04/21 10:31:26;;;;;;;12.20;11.70;;;22.30;42.30;;;;;;5051572;28;20806;-45
2022/04/21 10:33:54;;;;;;;11.87;11.57;;;22.30;42.30;;;;;;5051783;28;20444;-45
2022/04/21 10:36:36;;;;;;;11.20;10.90;;;22.30;42.30;;;;;;5051400;28;20445;-45
2022/04/21 10:39:24;;;;;;;11.73;11.43;;;22.30;42.30;;;;;;5051475;28;20460;-45
2022/04/21 10:44:54;;;;;;;11.17;10.87;;;22.30;42.30;;;;;;5121838;27;20866;-48
2022/04/21 10:47:35;;;;;;;10.63;10.43;;;22.30;42.30;;;;;;5068980;28;20499;-49
2022/04/21 10:50:12;;;;;;;11.33;11.03;;;22.30;42.30;;;;;;5068864;28;20543;-51
2022/04/21 10:58:49;;;;;;;11.03;10.73;;;22.30;42.30;;;;;;5080199;28;20497;-49
2022/04/21 11:01:23;;;;;;;11.30;10.90;;;22.30;42.40;;;;;;5080843;28;20443;-50
2022/04/21 11:04:06;;;;;;;11.30;11.00;;;22.30;42.30;;;;;;5079253;28;20506;-50
2022/04/21 11:06:44;;;;;;;10.30;10.00;;;22.30;42.30;;;;;;5079497;28;20449;-53
2022/04/21 11:09:35;;;;;;;11.33;11.03;;;22.30;42.30;;;;;;5078880;28;20981;-50
2022/04/21 11:12:02;;;;;;;10.07;9.87;;;22.30;42.30;;;;;;5078970;28;20500;-49
2022/04/21 11:14:31;;;;;;;10.50;10.30;;;22.40;42.30;;;;;;5080386;28;20448;-52
2022/04/21 11:17:00;;;;;;;10.60;10.30;;;22.30;42.30;;;;;;5080016;28;20455;-47
2022/04/21 11:19:35;;;;;;;11.10;10.80;;;22.30;42.40;;;;;;5079519;28;20443;-53
2022/04/21 11:22:03;;;;;;;10.80;10.50;;;22.30;42.30;;;;;;5080582;28;20467;-49
2022/04/21 11:25:02;;;;;;;10.50;10.20;;;22.40;42.40;;;;;;5080109;28;20483;-53
2022/04/21 11:27:29;;;;;;;9.40;9.20;;;22.30;42.30;;;;;;5079832;28;20497;-51
2022/04/21 11:30:01;;;;;;;9.90;9.70;;;22.40;42.30;;;;;;5079489;28;20439;-51
2022/04/21 11:32:29;;;;;;;10.83;10.53;;;22.40;42.80;;;;;;5080734;28;20444;-48
2022/04/21 11:35:01;;;;;;;11.17;10.87;;;22.40;42.20;;;;;;5080923;28;20470;-52
2022/04/21 11:37:48;;;;;;;10.47;10.17;;;22.40;42.20;;;;;;5079943;28;20464;-48
2022/04/21 11:40:33;;;;;;;10.10;9.80;;;22.40;42.10;;;;;;5080515;28;20431;-52
2022/04/21 11:43:04;;;;;;;9.90;9.70;;;22.40;42.10;;;;;;5078928;28;20484;-49
2022/04/21 11:45:34;;;;;;;10.40;10.20;;;22.40;42.10;;;;;;5079687;28;20450;-53
2022/04/21 11:48:02;;;;;;;10.83;10.53;;;22.40;42.10;;;;;;5079204;28;20468;-50
2022/04/21 11:50:30;;;;;;;11.10;10.83;;;22.40;42.10;;;;;;5080553;28;20467;-52
2022/04/21 11:52:58;;;;;;;10.60;10.20;;;22.40;42.10;;;;;;5080615;28;20535;-52
2022/04/21 11:55:28;;;;;;;10.50;10.20;;;22.40;42.00;;;;;;5070531;28;20519;-52
2022/04/21 11:57:55;;;;;;;11.70;11.40;;;22.40;42.00;;;;;;5066910;28;20499;-52
2022/04/21 12:08:44;;;;;;;10.17;9.97;;;22.50;42.00;;;;;;5066028;28;20448;-54
2022/04/21 12:11:13;;;;;;;10.87;10.57;;;22.60;41.90;;;;;;5066944;28;20449;-52
2022/04/21 12:13:40;;;;;;;10.00;9.80;;;22.60;41.90;;;;;;5067926;28;20443;-50
2022/04/21 12:16:34;;;;;;;9.87;9.57;;;22.70;41.90;;;;;;5067383;28;20455;-54
2022/04/21 12:19:15;;;;;;;9.80;9.60;;;22.80;41.80;;;;;;5066506;28;20543;-47
2022/04/21 12:21:43;;;;;;;10.70;10.43;;;22.90;41.60;;;;;;5066803;28;20444;-49
2022/04/21 12:24:14;;;;;;;10.53;10.33;;;23.00;41.50;;;;;;5065917;28;20476;-49
2022/04/21 12:26:48;;;;;;;10.53;10.33;;;23.00;41.40;;;;;;5066063;28;20491;-47
2022/04/21 12:29:15;;;;;;;9.90;9.70;;;22.90;41.40;;;;;;5066833;28;20808;-49
2022/04/21 12:31:48;;;;;;;10.33;10.13;;;22.90;41.60;;;;;;5066336;28;20448;-50
2022/04/21 12:34:23;;;;;;;10.57;10.27;;;22.80;41.60;;;;;;5065796;28;20445;-53
2022/04/21 12:36:51;;;;;;;10.50;10.30;;;22.80;41.60;;;;;;5067070;28;20436;-46
2022/04/21 12:39:19;;;;;;;10.63;10.33;;;22.80;41.70;;;;;;5066835;28;20460;-50
2022/04/21 12:41:46;;;;;;;10.47;10.13;;;22.80;41.70;;;;;;5065356;28;20437;-49
2022/04/21 12:44:13;;;;;;;10.00;9.70;;;22.80;41.60;;;;;;5065526;28;20486;-48
2022/04/21 12:46:40;;;;;;;10.57;10.37;;;22.80;41.60;;;;;;5065327;28;20448;-46
2022/04/21 12:49:07;;;;;;;10.47;10.20;;;22.90;41.60;;;;;;5065986;28;20499;-46
2022/04/21 12:51:35;;;;;;;10.57;10.37;;;22.90;41.60;;;;;;5065520;28;20804;-46
2022/04/21 12:54:02;;;;;;;10.60;10.30;;;22.90;41.60;;;;;;5065702;28;20449;-46
2022/04/21 12:56:34;;;;;;;10.87;10.57;;;22.90;41.60;;;;;;5065468;28;20436;-49
2022/04/21 12:59:02;;;;;;;10.40;10.20;;;22.90;41.60;;;;;;5064933;28;20491;-46
2022/04/21 13:01:29;;;;;;;11.10;10.80;;;23.00;41.70;;;;;;5063960;28;20500;-46
2022/04/21 13:03:58;;;;;;;10.40;10.20;;;22.90;41.60;;;;;;5064836;28;20486;-47
2022/04/21 13:06:29;;;;;;;11.10;10.80;;;22.90;41.70;;;;;;5063668;28;20443;-45
2022/04/21 13:08:57;;;;;;;10.70;10.40;;;22.90;41.90;;;;;;5064814;28;20464;-47
2022/04/21 13:11:24;;;;;;;10.30;10.10;;;22.80;41.90;;;;;;5065407;28;20437;-46
2022/04/21 13:13:53;;;;;;;10.67;10.40;;;22.80;41.90;;;;;;5065524;28;20432;-50
2022/04/21 13:16:21;;;;;;;10.57;10.30;;;22.80;42.50;;;;;;5064772;28;20447;-49
2022/04/21 13:18:47;;;;;;;10.97;10.67;;;22.80;42.00;;;;;;5066108;28;20471;-49
2022/04/21 13:24:00;;;;;;;10.80;10.50;;;22.90;41.80;;;;;;5066300;28;20503;-50
2022/04/21 13:26:29;;;;;;;10.83;10.53;;;23.00;41.80;;;;;;5064893;28;20437;-46
2022/04/21 13:28:58;;;;;;;10.43;10.20;;;23.00;41.70;;;;;;5064320;28;20472;-48
2022/04/21 13:34:14;;;;;;;10.40;10.10;;;23.10;41.60;;;;;;5006266;28;20438;-46
2022/04/21 13:36:41;;;;;;;11.03;10.73;;;23.10;41.70;;;;;;5065868;28;20814;-47
2022/04/21 13:39:09;;;;;;;10.53;10.23;;;23.10;41.70;;;;;;5066775;28;20829;-46
2022/04/21 13:41:35;;;;;;;10.90;10.60;;;23.10;41.80;;;;;;5052974;28;20447;-45
2022/04/21 13:44:02;;;;;;;10.93;10.70;;;23.10;41.80;;;;;;5052101;28;20484;-45
2022/04/21 13:46:29;;;;;;;11.23;10.93;;;23.10;41.70;;;;;;5052129;28;20448;-46